Montrose, CO

11:48 PM MDT on September 14, 2014 (GMT -0600)
Delta | Change Station
CLOSE
Current Station
Airport
Location: Delta,
Elevation: 5194 ft
Nearby Weather Stations

Elev 5194 ft 38.79 °N, 108.07 °W | Updated 13 minutes ago

Clear
Clear
64 °F
Feels Like 64 °F
N
7
Wind Variable Wind from NNE

Today
High -- | Low -- °F
--% Chance of Precip.
Yesterday
High -- | Low -- °F
Precip. -- in
6:52 AM 7:21 PM
Waning Gibbous, 58% visible
Pressure 30.15 in
Visibility 10.0 miles
Clouds Clear
Dew Point 42 °F
Humidity 46%
Rainfall 0.00 in
Snow Depth 0 in , 0 in , 0 in
UV 0 out of 12
Pollen 6.00 out of 12
Air Quality Not available.
Flu Activity Not available.
METAR KAJZ 150535Z AUTO 02006KT 10SM CLR 18/06 A3015 RMK AO2 T01760057

More Conditions Fewer Conditions

Pressure 30.15 in
Visibility 10.0 miles
Clouds Clear
Dew Point 42 °F
Humidity 46%
Rainfall 0.00 in
Snow Depth 0 in , 0 in , 0 in
UV 0 out of 12
Pollen 6.00 out of 12
Air Quality Not available.
Flu Activity Not available.
METAR KAJZ 150535Z AUTO 02006KT 10SM CLR 18/06 A3015 RMK AO2 T01760057

More Conditions Fewer Conditions

10-Day Weather Forecast

Almanac

Astronomy

Sep. 14, 2014 Rise Set
Actual Time 6:52 AM MDT 7:21 PM MDT
Civil Twilight 6:25 AM MDT 7:47 PM MDT
Nautical Twilight 5:54 AM MDT 8:18 PM MDT
Astronomical Twilight 5:22 AM MDT 8:50 PM MDT
Moon 11:20 PM MDT (9/14) 12:56 PM MDT (9/14)
Length of Visible Light 13h 21m
Length of Day
12h 28m
Tomorrow will be 2m 28s shorter.
Waning Gibbous, 58% of the Moon is Illuminated
Sep 15
Waning Gibbous
Sep 15
Last Quarter
Sep 24
New
Oct 1
First Quarter
Oct 8
Full

Yesterday's Extremes

State Highs State Lows

Community

WunderPhotos

Upload Photos

1,753,416 photos uploaded!

WunderBlogs® & News

Nearby

Snow Depth

Station Depth Elevation
Bear RIver 0 in 9080 ft
Apishapa 0 in 10000 ft
Never Summer 77 in 10280 ft
Cascade #2 0 in 8920 ft
Lily Pond 1 in 11000 ft

Earthquake Activity

City Distance Mag. Time & Date
No recent earthquake activity has been reported nearby.
Minimum magnitude displayed is 2.5.

Coastal Water Temperatures

Place Temperature
No Stations Reporting

Nearby Weather Stations